68.9°F
Current conditions from King Hill
Updated every 5 minutes
 
  Saturday August 30, 2014

Station Historical Data
Daily Summary for July 4, 2011 Units:  Both    English   Metric
« Previous Day
Next Day »
Daily Weekly Monthly Yearly Custom
  High: Low: Average:
Temperature: 84.3 °F /  29.1 °C 61.3 °F /  16.3 °C 71.7 °F /  22.1 °C
Dew Point: 69.8 °F /  21 °C 55.6 °F /  13.1 °C 62.5 °F /  16.9 °C
Humidity: 97% 40% 76%
Wind Speed: 7.0mph /  11.3km/h - 2.3mph /  3.7km/h
Wind Gust: 13.0mph /  20.9km/h - -
Wind- - WSW
Pressure: 29.78 in /  1008.4 hPa 29.73 in /  1006.7 hPa -
Precipitation: 0.01 in /  0.3 mm    
Historical Graphs
 
 
Tabular Data for July 4, 2011
Time Temperature Dew Point Pressure Wind Wind Speed Wind Gust Humidity Daily Rainfall
00:04 64.0 °F /  17.8 °C 61.3 °F /  16.3 °C 29.76in /  1007.7hPa Calm   5.0mph /  8km/h 91% 0.00in /  0mm
00:09 63.8 °F /  17.7 °C 61.1 °F /  16.2 °C 29.76in /  1007.7hPa SSW 1.0mph /  1.6km/h 6.0mph /  9.7km/h 91% 0.00in /  0mm
00:14 63.8 °F /  17.7 °C 61.1 °F /  16.2 °C 29.76in /  1007.7hPa SSW 3.0mph /  4.8km/h 8.0mph /  12.9km/h 91% 0.00in /  0mm
00:19 63.9 °F /  17.7 °C 61.5 °F /  16.4 °C 29.76in /  1007.7hPa SW 2.0mph /  3.2km/h 8.0mph /  12.9km/h 92% 0.00in /  0mm
00:24 63.8 °F /  17.7 °C 61.4 °F /  16.3 °C 29.76in /  1007.7hPa SSW 2.0mph /  3.2km/h 7.0mph /  11.3km/h 92% 0.00in /  0mm
00:29 63.6 °F /  17.6 °C 61.2 °F /  16.2 °C 29.75in /  1007.3hPa SSW 1.0mph /  1.6km/h 7.0mph /  11.3km/h 92% 0.00in /  0mm
00:34 63.4 °F /  17.4 °C 61.0 °F /  16.1 °C 29.75in /  1007.3hPa SSW 1.0mph /  1.6km/h 5.0mph /  8km/h 92% 0.00in /  0mm
00:39 63.3 °F /  17.4 °C 60.9 °F /  16.1 °C 29.75in /  1007.3hPa SSW 1.0mph /  1.6km/h 8.0mph /  12.9km/h 92% 0.00in /  0mm
00:44 63.1 °F /  17.3 °C 60.7 °F /  15.9 °C 29.75in /  1007.3hPa SSW 2.0mph /  3.2km/h 8.0mph /  12.9km/h 92% 0.00in /  0mm
00:49 63.0 °F /  17.2 °C 60.6 °F /  15.9 °C 29.75in /  1007.3hPa SSW 1.0mph /  1.6km/h 5.0mph /  8km/h 92% 0.00in /  0mm
00:54 62.8 °F /  17.1 °C 60.4 °F /  15.8 °C 29.75in /  1007.3hPa SSW 1.0mph /  1.6km/h 5.0mph /  8km/h 92% 0.00in /  0mm
00:59 62.6 °F /  17 °C 60.2 °F /  15.7 °C 29.75in /  1007.3hPa Calm   5.0mph /  8km/h 92% 0.00in /  0mm
01:04 62.5 °F /  16.9 °C 60.1 °F /  15.6 °C 29.75in /  1007.3hPa Calm   4.0mph /  6.4km/h 92% 0.00in /  0mm
01:09 62.3 °F /  16.8 °C 59.9 °F /  15.5 °C 29.74in /  1007hPa Calm   4.0mph /  6.4km/h 92% 0.00in /  0mm
01:14 62.2 °F /  16.8 °C 59.8 °F /  15.4 °C 29.75in /  1007.3hPa SSW 1.0mph /  1.6km/h 5.0mph /  8km/h 92% 0.00in /  0mm
01:19 62.0 °F /  16.7 °C 59.7 °F /  15.4 °C 29.74in /  1007hPa SSW 1.0mph /  1.6km/h 6.0mph /  9.7km/h 92% 0.00in /  0mm
01:24 62.0 °F /  16.7 °C 59.7 °F /  15.4 °C 29.74in /  1007hPa SW 2.0mph /  3.2km/h 6.0mph /  9.7km/h 92% 0.00in /  0mm
01:29 61.8 °F /  16.6 °C 59.8 °F /  15.4 °C 29.73in /  1006.7hPa SSW 1.0mph /  1.6km/h 5.0mph /  8km/h 93% 0.00in /  0mm
01:34 61.8 °F /  16.6 °C 59.8 °F /  15.4 °C 29.73in /  1006.7hPa SSW 1.0mph /  1.6km/h 5.0mph /  8km/h 93% 0.00in /  0mm
01:39 61.7 °F /  16.5 °C 59.7 °F /  15.4 °C 29.73in /  1006.7hPa South 1.0mph /  1.6km/h 4.0mph /  6.4km/h 93% 0.00in /  0mm
01:44 61.6 °F /  16.4 °C 59.6 °F /  15.3 °C 29.73in /  1006.7hPa SSW 1.0mph /  1.6km/h 5.0mph /  8km/h 93% 0.00in /  0mm
01:49 61.5 °F /  16.4 °C 59.5 °F /  15.3 °C 29.73in /  1006.7hPa SSW 1.0mph /  1.6km/h 5.0mph /  8km/h 93% 0.00in /  0mm
01:54 61.4 °F /  16.3 °C 59.4 °F /  15.2 °C 29.73in /  1006.7hPa SSW 3.0mph /  4.8km/h 5.0mph /  8km/h 93% 0.00in /  0mm
01:59 61.4 °F /  16.3 °C 59.4 °F /  15.2 °C 29.73in /  1006.7hPa SSW 1.0mph /  1.6km/h 5.0mph /  8km/h 93% 0.00in /  0mm
02:04 61.4 °F /  16.3 °C 59.4 °F /  15.2 °C 29.73in /  1006.7hPa SSW 1.0mph /  1.6km/h 4.0mph /  6.4km/h 93% 0.00in /  0mm
02:09 61.4 °F /  16.3 °C 59.7 °F /  15.4 °C 29.73in /  1006.7hPa SSW 1.0mph /  1.6km/h 3.0mph /  4.8km/h 94% 0.00in /  0mm
02:14 61.5 °F /  16.4 °C 59.8 °F /  15.4 °C 29.73in /  1006.7hPa SSW 1.0mph /  1.6km/h 4.0mph /  6.4km/h 94% 0.00in /  0mm
02:19 61.5 °F /  16.4 °C 59.8 °F /  15.4 °C 29.73in /  1006.7hPa Calm   5.0mph /  8km/h 94% 0.00in /  0mm
02:24 61.6 °F /  16.4 °C 59.9 °F /  15.5 °C 29.73in /  1006.7hPa SSW 3.0mph /  4.8km/h 6.0mph /  9.7km/h 94% 0.00in /  0mm
02:29 61.7 °F /  16.5 °C 60.0 °F /  15.6 °C 29.73in /  1006.7hPa SSW 3.0mph /  4.8km/h 9.0mph /  14.5km/h 94% 0.01in /  0.3mm
02:34 61.8 °F /  16.6 °C 60.1 °F /  15.6 °C 29.73in /  1006.7hPa SSW 3.0mph /  4.8km/h 9.0mph /  14.5km/h 94% 0.01in /  0.3mm
02:39 61.8 °F /  16.6 °C 60.1 °F /  15.6 °C 29.73in /  1006.7hPa SSW 2.0mph /  3.2km/h 7.0mph /  11.3km/h 94% 0.01in /  0.3mm
02:44 61.9 °F /  16.6 °C 60.2 °F /  15.7 °C 29.73in /  1006.7hPa SW 3.0mph /  4.8km/h 7.0mph /  11.3km/h 94% 0.01in /  0.3mm
02:49 62.0 °F /  16.7 °C 60.3 °F /  15.7 °C 29.73in /  1006.7hPa SSW 5.0mph /  8km/h 9.0mph /  14.5km/h 94% 0.01in /  0.3mm
02:54 62.1 °F /  16.7 °C 60.4 °F /  15.8 °C 29.73in /  1006.7hPa SW 3.0mph /  4.8km/h 9.0mph /  14.5km/h 94% 0.01in /  0.3mm
02:59 62.1 °F /  16.7 °C 60.7 °F /  15.9 °C 29.73in /  1006.7hPa SSW 2.0mph /  3.2km/h 9.0mph /  14.5km/h 95% 0.01in /  0.3mm
03:04 62.0 °F /  16.7 °C 60.3 °F /  15.7 °C 29.73in /  1006.7hPa Calm   9.0mph /  14.5km/h 94% 0.01in /  0.3mm
03:09 61.8 °F /  16.6 °C 60.1 °F /  15.6 °C 29.73in /  1006.7hPa SW 2.0mph /  3.2km/h 7.0mph /  11.3km/h 94% 0.01in /  0.3mm
03:14 61.8 °F /  16.6 °C 60.4 °F /  15.8 °C 29.73in /  1006.7hPa SW 1.0mph /  1.6km/h 7.0mph /  11.3km/h 95% 0.01in /  0.3mm
03:19 61.7 °F /  16.5 °C 60.3 °F /  15.7 °C 29.73in /  1006.7hPa SSW 1.0mph /  1.6km/h 7.0mph /  11.3km/h 95% 0.01in /  0.3mm
03:24 61.7 °F /  16.5 °C 60.3 °F /  15.7 °C 29.73in /  1006.7hPa Calm   6.0mph /  9.7km/h 95% 0.01in /  0.3mm
03:29 61.6 °F /  16.4 °C 60.2 °F /  15.7 °C 29.73in /  1006.7hPa SSW 1.0mph /  1.6km/h 4.0mph /  6.4km/h 95% 0.01in /  0.3mm
03:34 61.4 °F /  16.3 °C 60.0 °F /  15.6 °C 29.73in /  1006.7hPa Calm   4.0mph /  6.4km/h 95% 0.01in /  0.3mm
03:39 61.3 °F /  16.3 °C 59.9 °F /  15.5 °C 29.73in /  1006.7hPa Calm   4.0mph /  6.4km/h 95% 0.01in /  0.3mm
03:44 61.4 °F /  16.3 °C 60.0 °F /  15.6 °C 29.73in /  1006.7hPa Calm   3.0mph /  4.8km/h 95% 0.01in /  0.3mm
03:49 61.5 °F /  16.4 °C 60.1 °F /  15.6 °C 29.73in /  1006.7hPa Calm   3.0mph /  4.8km/h 95% 0.01in /  0.3mm
03:54 61.8 °F /  16.6 °C 60.6 °F /  15.9 °C 29.73in /  1006.7hPa Calm   1.0mph /  1.6km/h 96% 0.01in /  0.3mm
03:59 62.1 °F /  16.7 °C 60.9 °F /  16.1 °C 29.73in /  1006.7hPa SW 1.0mph /  1.6km/h 4.0mph /  6.4km/h 96% 0.01in /  0.3mm
04:04 62.3 °F /  16.8 °C 61.1 °F /  16.2 °C 29.73in /  1006.7hPa Calm   4.0mph /  6.4km/h 96% 0.01in /  0.3mm
04:09 62.5 °F /  16.9 °C 61.3 °F /  16.3 °C 29.73in /  1006.7hPa SSW 1.0mph /  1.6km/h 4.0mph /  6.4km/h 96% 0.01in /  0.3mm
04:14 62.7 °F /  17.1 °C 61.5 °F /  16.4 °C 29.73in /  1006.7hPa Calm   4.0mph /  6.4km/h 96% 0.01in /  0.3mm
04:19 62.8 °F /  17.1 °C 61.6 °F /  16.4 °C 29.73in /  1006.7hPa Calm   4.0mph /  6.4km/h 96% 0.01in /  0.3mm
04:24 62.8 °F /  17.1 °C 61.6 °F /  16.4 °C 29.73in /  1006.7hPa SSW 1.0mph /  1.6km/h 4.0mph /  6.4km/h 96% 0.01in /  0.3mm
04:29 62.8 °F /  17.1 °C 61.6 °F /  16.4 °C 29.73in /  1006.7hPa Calm   4.0mph /  6.4km/h 96% 0.01in /  0.3mm
04:34 62.9 °F /  17.2 °C 61.7 °F /  16.5 °C 29.73in /  1006.7hPa SSW 3.0mph /  4.8km/h 5.0mph /  8km/h 96% 0.01in /  0.3mm
04:39 63.2 °F /  17.3 °C 62.0 °F /  16.7 °C 29.73in /  1006.7hPa SSW 2.0mph /  3.2km/h 5.0mph /  8km/h 96% 0.01in /  0.3mm
04:44 63.5 °F /  17.5 °C 62.3 °F /  16.8 °C 29.73in /  1006.7hPa SSW 2.0mph /  3.2km/h 6.0mph /  9.7km/h 96% 0.01in /  0.3mm
04:49 64.0 °F /  17.8 °C 62.8 °F /  17.1 °C 29.73in /  1006.7hPa SW 2.0mph /  3.2km/h 6.0mph /  9.7km/h 96% 0.01in /  0.3mm
04:54 64.5 °F /  18.1 °C 63.3 °F /  17.4 °C 29.73in /  1006.7hPa SSW 2.0mph /  3.2km/h 7.0mph /  11.3km/h 96% 0.01in /  0.3mm
04:59 64.8 °F /  18.2 °C 63.6 °F /  17.6 °C 29.73in /  1006.7hPa SSW 1.0mph /  1.6km/h 7.0mph /  11.3km/h 96% 0.01in /  0.3mm
05:04 65.0 °F /  18.3 °C 63.8 °F /  17.7 °C 29.73in /  1006.7hPa SSW 2.0mph /  3.2km/h 6.0mph /  9.7km/h 96% 0.01in /  0.3mm
05:09 65.1 °F /  18.4 °C 63.9 °F /  17.7 °C 29.73in /  1006.7hPa SSW 2.0mph /  3.2km/h 7.0mph /  11.3km/h 96% 0.01in /  0.3mm
05:14 65.2 °F /  18.4 °C 64.0 °F /  17.8 °C 29.74in /  1007hPa SW 1.0mph /  1.6km/h 7.0mph /  11.3km/h 96% 0.01in /  0.3mm
05:19 65.4 °F /  18.6 °C 64.2 °F /  17.9 °C 29.74in /  1007hPa Calm   5.0mph /  8km/h 96% 0.01in /  0.3mm
05:24 65.6 °F /  18.7 °C 64.4 °F /  18 °C 29.74in /  1007hPa SW 1.0mph /  1.6km/h 6.0mph /  9.7km/h 96% 0.01in /  0.3mm
05:29 65.9 °F /  18.8 °C 65.0 °F /  18.3 °C 29.74in /  1007hPa SW 2.0mph /  3.2km/h 10.0mph /  16.1km/h 97% 0.01in /  0.3mm
05:34 66.0 °F /  18.9 °C 64.8 °F /  18.2 °C 29.74in /  1007hPa Calm   10.0mph /  16.1km/h 96% 0.01in /  0.3mm
05:39 66.0 °F /  18.9 °C 64.8 °F /  18.2 °C 29.74in /  1007hPa SW 4.0mph /  6.4km/h 8.0mph /  12.9km/h 96% 0.01in /  0.3mm
05:44 66.0 °F /  18.9 °C 64.8 °F /  18.2 °C 29.74in /  1007hPa SSW 4.0mph /  6.4km/h 8.0mph /  12.9km/h 96% 0.01in /  0.3mm
05:49 66.1 °F /  18.9 °C 64.9 °F /  18.3 °C 29.74in /  1007hPa SSW 1.0mph /  1.6km/h 8.0mph /  12.9km/h 96% 0.01in /  0.3mm
05:54 66.2 °F /  19 °C 65.0 °F /  18.3 °C 29.74in /  1007hPa SW 3.0mph /  4.8km/h 13.0mph /  20.9km/h 96% 0.01in /  0.3mm
05:59 66.2 °F /  19 °C 65.0 °F /  18.3 °C 29.74in /  1007hPa SSW 4.0mph /  6.4km/h 13.0mph /  20.9km/h 96% 0.01in /  0.3mm
06:04 66.1 °F /  18.9 °C 64.9 °F /  18.3 °C 29.74in /  1007hPa SW 3.0mph /  4.8km/h 9.0mph /  14.5km/h 96% 0.01in /  0.3mm
06:09 66.2 °F /  19 °C 65.0 °F /  18.3 °C 29.74in /  1007hPa SW 3.0mph /  4.8km/h 9.0mph /  14.5km/h 96% 0.01in /  0.3mm
06:14 66.2 °F /  19 °C 65.0 °F /  18.3 °C 29.74in /  1007hPa SSW 2.0mph /  3.2km/h 7.0mph /  11.3km/h 96% 0.01in /  0.3mm
06:19 66.3 °F /  19.1 °C 65.1 °F /  18.4 °C 29.74in /  1007hPa SW 2.0mph /  3.2km/h 8.0mph /  12.9km/h 96% 0.01in /  0.3mm
06:24 66.3 °F /  19.1 °C 65.1 °F /  18.4 °C 29.74in /  1007hPa SW 2.0mph /  3.2km/h 8.0mph /  12.9km/h 96% 0.01in /  0.3mm
06:34 66.3 °F /  19.1 °C 65.4 °F /  18.6 °C 29.75in /  1007.3hPa SW 5.0mph /  8km/h 9.0mph /  14.5km/h 97% 0.01in /  0.3mm
06:39 66.3 °F /  19.1 °C 65.1 °F /  18.4 °C 29.75in /  1007.3hPa SW 3.0mph /  4.8km/h 9.0mph /  14.5km/h 96% 0.01in /  0.3mm
06:44 66.3 °F /  19.1 °C 65.4 °F /  18.6 °C 29.75in /  1007.3hPa SW 5.0mph /  8km/h 11.0mph /  17.7km/h 97% 0.01in /  0.3mm
06:49 66.3 °F /  19.1 °C 65.4 °F /  18.6 °C 29.75in /  1007.3hPa SW 5.0mph /  8km/h 12.0mph /  19.3km/h 97% 0.01in /  0.3mm
06:54 66.3 °F /  19.1 °C 65.4 °F /  18.6 °C 29.75in /  1007.3hPa SW 4.0mph /  6.4km/h 12.0mph /  19.3km/h 97% 0.01in /  0.3mm
06:59 66.3 °F /  19.1 °C 65.1 °F /  18.4 °C 29.75in /  1007.3hPa SW 4.0mph /  6.4km/h 11.0mph /  17.7km/h 96% 0.01in /  0.3mm
07:04 66.4 °F /  19.1 °C 65.5 °F /  18.6 °C 29.75in /  1007.3hPa SW 3.0mph /  4.8km/h 11.0mph /  17.7km/h 97% 0.01in /  0.3mm
07:09 66.5 °F /  19.2 °C 65.6 °F /  18.7 °C 29.75in /  1007.3hPa SW 4.0mph /  6.4km/h 10.0mph /  16.1km/h 97% 0.01in /  0.3mm
07:14 66.6 °F /  19.2 °C 65.7 °F /  18.7 °C 29.75in /  1007.3hPa SW 2.0mph /  3.2km/h 10.0mph /  16.1km/h 97% 0.01in /  0.3mm
07:19 66.7 °F /  19.3 °C 65.8 °F /  18.8 °C 29.75in /  1007.3hPa SW 6.0mph /  9.7km/h 10.0mph /  16.1km/h 97% 0.01in /  0.3mm
07:24 66.8 °F /  19.3 °C 65.9 °F /  18.8 °C 29.75in /  1007.3hPa SSW 7.0mph /  11.3km/h 12.0mph /  19.3km/h 97% 0.01in /  0.3mm
07:29 66.8 °F /  19.3 °C 65.6 °F /  18.7 °C 29.75in /  1007.3hPa SW 3.0mph /  4.8km/h 12.0mph /  19.3km/h 96% 0.01in /  0.3mm
07:34 67.0 °F /  19.4 °C 66.1 °F /  18.9 °C 29.75in /  1007.3hPa SW 4.0mph /  6.4km/h 10.0mph /  16.1km/h 97% 0.01in /  0.3mm
07:39 67.1 °F /  19.5 °C 66.2 °F /  19 °C 29.76in /  1007.7hPa SSW 4.0mph /  6.4km/h 9.0mph /  14.5km/h 97% 0.01in /  0.3mm
07:44 67.5 °F /  19.7 °C 66.3 °F /  19.1 °C 29.76in /  1007.7hPa SW 2.0mph /  3.2km/h 9.0mph /  14.5km/h 96% 0.01in /  0.3mm
07:49 67.4 °F /  19.7 °C 66.2 °F /  19 °C 29.76in /  1007.7hPa SW 7.0mph /  11.3km/h 11.0mph /  17.7km/h 96% 0.01in /  0.3mm
07:54 67.4 °F /  19.7 °C 66.2 °F /  19 °C 29.76in /  1007.7hPa SW 6.0mph /  9.7km/h 11.0mph /  17.7km/h 96% 0.01in /  0.3mm
07:59 67.5 °F /  19.7 °C 66.3 °F /  19.1 °C 29.76in /  1007.7hPa SW 6.0mph /  9.7km/h 11.0mph /  17.7km/h 96% 0.01in /  0.3mm
08:04 67.7 °F /  19.8 °C 66.5 °F /  19.2 °C 29.76in /  1007.7hPa SW 4.0mph /  6.4km/h 10.0mph /  16.1km/h 96% 0.01in /  0.3mm
08:09 67.9 °F /  19.9 °C 66.7 °F /  19.3 °C 29.76in /  1007.7hPa SW 7.0mph /  11.3km/h 13.0mph /  20.9km/h 96% 0.01in /  0.3mm
08:19 68.1 °F /  20.1 °C 66.6 °F /  19.2 °C 29.77in /  1008hPa SSW 6.0mph /  9.7km/h 11.0mph /  17.7km/h 95% 0.01in /  0.3mm
08:24 68.4 °F /  20.2 °C 66.6 °F /  19.2 °C 29.77in /  1008hPa SW 6.0mph /  9.7km/h 12.0mph /  19.3km/h 94% 0.01in /  0.3mm
08:29 69.2 °F /  20.7 °C 67.7 °F /  19.8 °C 29.77in /  1008hPa SW 2.0mph /  3.2km/h 12.0mph /  19.3km/h 95% 0.01in /  0.3mm
08:34 69.8 °F /  21 °C 68.0 °F /  20 °C 29.77in /  1008hPa SW 3.0mph /  4.8km/h 8.0mph /  12.9km/h 94% 0.01in /  0.3mm
08:39 70.4 °F /  21.3 °C 68.3 °F /  20.2 °C 29.77in /  1008hPa SSW 3.0mph /  4.8km/h 8.0mph /  12.9km/h 93% 0.01in /  0.3mm
08:44 71.1 °F /  21.7 °C 68.7 °F /  20.4 °C 29.77in /  1008hPa SSW 1.0mph /  1.6km/h 8.0mph /  12.9km/h 92% 0.01in /  0.3mm
08:49 71.8 °F /  22.1 °C 69.0 °F /  20.6 °C 29.77in /  1008hPa SSW 2.0mph /  3.2km/h 8.0mph /  12.9km/h 91% 0.01in /  0.3mm
08:54 72.1 °F /  22.3 °C 69.0 °F /  20.6 °C 29.77in /  1008hPa Calm   8.0mph /  12.9km/h 90% 0.01in /  0.3mm
09:04 72.6 °F /  22.6 °C 68.8 °F /  20.4 °C 29.77in /  1008hPa SW 1.0mph /  1.6km/h 9.0mph /  14.5km/h 88% 0.01in /  0.3mm
09:09 72.9 °F /  22.7 °C 68.8 °F /  20.4 °C 29.77in /  1008hPa SW 2.0mph /  3.2km/h 8.0mph /  12.9km/h 87% 0.01in /  0.3mm
09:14 73.0 °F /  22.8 °C 68.6 °F /  20.3 °C 29.77in /  1008hPa SW 1.0mph /  1.6km/h 8.0mph /  12.9km/h 86% 0.01in /  0.3mm
09:19 73.6 °F /  23.1 °C 69.5 °F /  20.8 °C 29.77in /  1008hPa SSW 1.0mph /  1.6km/h 8.0mph /  12.9km/h 87% 0.01in /  0.3mm
09:24 73.9 °F /  23.3 °C 69.8 °F /  21 °C 29.77in /  1008hPa WSW 1.0mph /  1.6km/h 5.0mph /  8km/h 87% 0.01in /  0.3mm
09:29 74.0 °F /  23.3 °C 69.5 °F /  20.8 °C 29.77in /  1008hPa SW 2.0mph /  3.2km/h 8.0mph /  12.9km/h 86% 0.01in /  0.3mm
09:34 74.2 °F /  23.4 °C 68.7 °F /  20.4 °C 29.77in /  1008hPa SSW 1.0mph /  1.6km/h 8.0mph /  12.9km/h 83% 0.01in /  0.3mm
09:39 74.2 °F /  23.4 °C 69.1 °F /  20.6 °C 29.77in /  1008hPa SW 1.0mph /  1.6km/h 7.0mph /  11.3km/h 84% 0.01in /  0.3mm
09:44 74.2 °F /  23.4 °C 68.4 °F /  20.2 °C 29.77in /  1008hPa SSW 1.0mph /  1.6km/h 5.0mph /  8km/h 82% 0.01in /  0.3mm
09:49 74.7 °F /  23.7 °C 69.5 °F /  20.8 °C 29.77in /  1008hPa Calm   5.0mph /  8km/h 84% 0.01in /  0.3mm
09:54 74.8 °F /  23.8 °C 68.6 °F /  20.3 °C 29.77in /  1008hPa SW 1.0mph /  1.6km/h 7.0mph /  11.3km/h 81% 0.01in /  0.3mm
09:59 74.2 °F /  23.4 °C 68.0 °F /  20 °C 29.77in /  1008hPa WSW 2.0mph /  3.2km/h 7.0mph /  11.3km/h 81% 0.01in /  0.3mm
10:04 73.8 °F /  23.2 °C 66.9 °F /  19.4 °C 29.77in /  1008hPa SSW 1.0mph /  1.6km/h 7.0mph /  11.3km/h 79% 0.01in /  0.3mm
10:09 74.2 °F /  23.4 °C 66.9 °F /  19.4 °C 29.77in /  1008hPa Calm   7.0mph /  11.3km/h 78% 0.01in /  0.3mm
10:14 74.9 °F /  23.8 °C 68.0 °F /  20 °C 29.77in /  1008hPa SW 1.0mph /  1.6km/h 5.0mph /  8km/h 79% 0.01in /  0.3mm
10:19 75.6 °F /  24.2 °C 67.9 °F /  19.9 °C 29.77in /  1008hPa WNW 2.0mph /  3.2km/h 6.0mph /  9.7km/h 77% 0.01in /  0.3mm
10:24 75.9 °F /  24.4 °C 67.0 °F /  19.4 °C 29.78in /  1008.4hPa West 1.0mph /  1.6km/h 7.0mph /  11.3km/h 74% 0.01in /  0.3mm
10:29 76.5 °F /  24.7 °C 68.0 °F /  20 °C 29.77in /  1008hPa Calm   7.0mph /  11.3km/h 75% 0.01in /  0.3mm
10:34 76.4 °F /  24.7 °C 65.9 °F /  18.8 °C 29.77in /  1008hPa West 2.0mph /  3.2km/h 9.0mph /  14.5km/h 70% 0.01in /  0.3mm
10:44 76.9 °F /  24.9 °C 67.2 °F /  19.6 °C 29.77in /  1008hPa WNW 4.0mph /  6.4km/h 8.0mph /  12.9km/h 72% 0.01in /  0.3mm
10:49 77.0 °F /  25 °C 68.5 °F /  20.3 °C 29.77in /  1008hPa Calm   8.0mph /  12.9km/h 75% 0.01in /  0.3mm
10:54 77.4 °F /  25.2 °C 67.3 °F /  19.6 °C 29.77in /  1008hPa WNW 2.0mph /  3.2km/h 6.0mph /  9.7km/h 71% 0.01in /  0.3mm
10:59 77.2 °F /  25.1 °C 66.7 °F /  19.3 °C 29.77in /  1008hPa Calm   6.0mph /  9.7km/h 70% 0.01in /  0.3mm
11:04 77.4 °F /  25.2 °C 69.2 °F /  20.7 °C 29.77in /  1008hPa Calm   6.0mph /  9.7km/h 76% 0.01in /  0.3mm
11:09 77.6 °F /  25.3 °C 68.3 °F /  20.2 °C 29.77in /  1008hPa WSW 1.0mph /  1.6km/h 6.0mph /  9.7km/h 73% 0.01in /  0.3mm
11:14 77.6 °F /  25.3 °C 67.1 °F /  19.5 °C 29.77in /  1008hPa WNW 4.0mph /  6.4km/h 7.0mph /  11.3km/h 70% 0.01in /  0.3mm
11:19 77.8 °F /  25.4 °C 67.2 °F /  19.6 °C 29.77in /  1008hPa WNW 2.0mph /  3.2km/h 7.0mph /  11.3km/h 70% 0.01in /  0.3mm
11:24 78.0 °F /  25.6 °C 67.4 °F /  19.7 °C 29.77in /  1008hPa WNW 3.0mph /  4.8km/h 8.0mph /  12.9km/h 70% 0.01in /  0.3mm
11:29 78.0 °F /  25.6 °C 67.0 °F /  19.4 °C 29.77in /  1008hPa Calm   8.0mph /  12.9km/h 69% 0.01in /  0.3mm
11:34 78.2 °F /  25.7 °C 67.6 °F /  19.8 °C 29.77in /  1008hPa WNW 4.0mph /  6.4km/h 9.0mph /  14.5km/h 70% 0.01in /  0.3mm
11:39 78.2 °F /  25.7 °C 66.4 °F /  19.1 °C 29.77in /  1008hPa Calm   9.0mph /  14.5km/h 67% 0.01in /  0.3mm
11:44 78.7 °F /  25.9 °C 68.1 °F /  20.1 °C 29.77in /  1008hPa Calm   7.0mph /  11.3km/h 70% 0.01in /  0.3mm
11:49 78.9 °F /  26.1 °C 65.7 °F /  18.7 °C 29.77in /  1008hPa NW 2.0mph /  3.2km/h 6.0mph /  9.7km/h 64% 0.01in /  0.3mm
11:54 79.1 °F /  26.2 °C 66.8 °F /  19.3 °C 29.77in /  1008hPa Calm   6.0mph /  9.7km/h 66% 0.01in /  0.3mm
11:59 79.4 °F /  26.3 °C 67.1 °F /  19.5 °C 29.77in /  1008hPa Calm   1.0mph /  1.6km/h 66% 0.01in /  0.3mm
12:04 79.3 °F /  26.3 °C 68.7 °F /  20.4 °C 29.77in /  1008hPa NW 2.0mph /  3.2km/h 6.0mph /  9.7km/h 70% 0.01in /  0.3mm
12:09 79.2 °F /  26.2 °C 69.4 °F /  20.8 °C 29.77in /  1008hPa Calm   6.0mph /  9.7km/h 72% 0.01in /  0.3mm
12:14 79.4 °F /  26.3 °C 65.7 °F /  18.7 °C 29.77in /  1008hPa NW 1.0mph /  1.6km/h 6.0mph /  9.7km/h 63% 0.01in /  0.3mm
12:19 80.0 °F /  26.7 °C 66.7 °F /  19.3 °C 29.76in /  1007.7hPa Calm   6.0mph /  9.7km/h 64% 0.01in /  0.3mm
12:24 80.5 °F /  26.9 °C 65.8 °F /  18.8 °C 29.77in /  1008hPa NW 3.0mph /  4.8km/h 7.0mph /  11.3km/h 61% 0.01in /  0.3mm
12:29 80.6 °F /  27 °C 65.0 °F /  18.3 °C 29.77in /  1008hPa WNW 4.0mph /  6.4km/h 8.0mph /  12.9km/h 59% 0.01in /  0.3mm
12:34 80.2 °F /  26.8 °C 64.1 °F /  17.8 °C 29.77in /  1008hPa WNW 2.0mph /  3.2km/h 8.0mph /  12.9km/h 58% 0.01in /  0.3mm
12:39 80.3 °F /  26.8 °C 62.2 °F /  16.8 °C 29.77in /  1008hPa NW 2.0mph /  3.2km/h 7.0mph /  11.3km/h 54% 0.01in /  0.3mm
12:44 80.7 °F /  27.1 °C 63.6 °F /  17.6 °C 29.77in /  1008hPa NW 4.0mph /  6.4km/h 9.0mph /  14.5km/h 56% 0.01in /  0.3mm
12:49 80.7 °F /  27.1 °C 62.0 °F /  16.7 °C 29.77in /  1008hPa WNW 3.0mph /  4.8km/h 9.0mph /  14.5km/h 53% 0.01in /  0.3mm
12:59 81.2 °F /  27.3 °C 63.0 °F /  17.2 °C 29.77in /  1008hPa NW 3.0mph /  4.8km/h 8.0mph /  12.9km/h 54% 0.01in /  0.3mm
13:04 81.6 °F /  27.6 °C 65.4 °F /  18.6 °C 29.76in /  1007.7hPa NW 1.0mph /  1.6km/h 7.0mph /  11.3km/h 58% 0.01in /  0.3mm
13:09 81.6 °F /  27.6 °C 62.3 °F /  16.8 °C 29.76in /  1007.7hPa WNW 3.0mph /  4.8km/h 6.0mph /  9.7km/h 52% 0.01in /  0.3mm
13:14 81.5 °F /  27.5 °C 63.3 °F /  17.4 °C 29.76in /  1007.7hPa WNW 2.0mph /  3.2km/h 6.0mph /  9.7km/h 54% 0.01in /  0.3mm
13:19 81.8 °F /  27.7 °C 64.1 °F /  17.8 °C 29.76in /  1007.7hPa NW 1.0mph /  1.6km/h 6.0mph /  9.7km/h 55% 0.01in /  0.3mm
13:24 81.9 °F /  27.7 °C 59.7 °F /  15.4 °C 29.76in /  1007.7hPa NW 1.0mph /  1.6km/h 7.0mph /  11.3km/h 47% 0.01in /  0.3mm
13:29 82.1 °F /  27.8 °C 57.4 °F /  14.1 °C 29.76in /  1007.7hPa NNE 1.0mph /  1.6km/h 7.0mph /  11.3km/h 43% 0.01in /  0.3mm
13:34 82.1 °F /  27.8 °C 60.5 °F /  15.8 °C 29.76in /  1007.7hPa NW 3.0mph /  4.8km/h 6.0mph /  9.7km/h 48% 0.01in /  0.3mm
13:39 82.2 °F /  27.9 °C 61.2 °F /  16.2 °C 29.76in /  1007.7hPa North 3.0mph /  4.8km/h 8.0mph /  12.9km/h 49% 0.01in /  0.3mm
13:44 82.4 °F /  28 °C 57.0 °F /  13.9 °C 29.76in /  1007.7hPa Calm   8.0mph /  12.9km/h 42% 0.01in /  0.3mm
13:49 82.3 °F /  27.9 °C 55.6 °F /  13.1 °C 29.76in /  1007.7hPa Calm   7.0mph /  11.3km/h 40% 0.01in /  0.3mm
13:54 82.5 °F /  28.1 °C 62.6 °F /  17 °C 29.76in /  1007.7hPa Calm   7.0mph /  11.3km/h 51% 0.01in /  0.3mm
13:59 82.8 °F /  28.2 °C 58.7 °F /  14.8 °C 29.75in /  1007.3hPa Calm   5.0mph /  8km/h 44% 0.01in /  0.3mm
14:04 83.1 °F /  28.4 °C 63.1 °F /  17.3 °C 29.75in /  1007.3hPa Calm   5.0mph /  8km/h 51% 0.01in /  0.3mm
14:09 83.2 °F /  28.4 °C 60.3 °F /  15.7 °C 29.75in /  1007.3hPa Calm   3.0mph /  4.8km/h 46% 0.01in /  0.3mm
14:14 83.3 °F /  28.5 °C 62.2 °F /  16.8 °C 29.75in /  1007.3hPa NW 1.0mph /  1.6km/h 5.0mph /  8km/h 49% 0.01in /  0.3mm
14:19 83.3 °F /  28.5 °C 62.7 °F /  17.1 °C 29.75in /  1007.3hPa Calm   6.0mph /  9.7km/h 50% 0.01in /  0.3mm
14:35 83.4 °F /  28.6 °C 61.1 °F /  16.2 °C 29.75in /  1007.3hPa Calm   2.0mph /  3.2km/h 47% 0.01in /  0.3mm
14:40 83.7 °F /  28.7 °C 65.3 °F /  18.5 °C 29.75in /  1007.3hPa NW 1.0mph /  1.6km/h 7.0mph /  11.3km/h 54% 0.01in /  0.3mm
14:45 83.6 °F /  28.7 °C 61.9 °F /  16.6 °C 29.75in /  1007.3hPa Calm   7.0mph /  11.3km/h 48% 0.01in /  0.3mm
14:50 83.6 °F /  28.7 °C 62.4 °F /  16.9 °C 29.74in /  1007hPa North 1.0mph /  1.6km/h 8.0mph /  12.9km/h 49% 0.01in /  0.3mm
14:55 83.4 °F /  28.6 °C 59.2 °F /  15.1 °C 29.74in /  1007hPa Calm   8.0mph /  12.9km/h 44% 0.01in /  0.3mm
15:05 83.6 °F /  28.7 °C 61.3 °F /  16.3 °C 29.74in /  1007hPa Calm   5.0mph /  8km/h 47% 0.01in /  0.3mm
15:10 83.6 °F /  28.7 °C 64.1 °F /  17.8 °C 29.74in /  1007hPa NNE 1.0mph /  1.6km/h 5.0mph /  8km/h 52% 0.01in /  0.3mm
15:15 83.9 °F /  28.8 °C 63.3 °F /  17.4 °C 29.74in /  1007hPa NNE 1.0mph /  1.6km/h 5.0mph /  8km/h 50% 0.01in /  0.3mm
15:20 84.0 °F /  28.9 °C 57.8 °F /  14.3 °C 29.74in /  1007hPa NE 2.0mph /  3.2km/h 6.0mph /  9.7km/h 41% 0.01in /  0.3mm
15:25 83.8 °F /  28.8 °C 60.8 °F /  16 °C 29.74in /  1007hPa Calm   7.0mph /  11.3km/h 46% 0.01in /  0.3mm
15:30 83.8 °F /  28.8 °C 59.6 °F /  15.3 °C 29.74in /  1007hPa NW 2.0mph /  3.2km/h 7.0mph /  11.3km/h 44% 0.01in /  0.3mm
15:35 83.8 °F /  28.8 °C 60.2 °F /  15.7 °C 29.74in /  1007hPa NW 4.0mph /  6.4km/h 7.0mph /  11.3km/h 45% 0.01in /  0.3mm
15:40 83.5 °F /  28.6 °C 60.0 °F /  15.6 °C 29.74in /  1007hPa WNW 3.0mph /  4.8km/h 8.0mph /  12.9km/h 45% 0.01in /  0.3mm
15:45 83.4 °F /  28.6 °C 60.5 °F /  15.8 °C 29.74in /  1007hPa NW 1.0mph /  1.6km/h 8.0mph /  12.9km/h 46% 0.01in /  0.3mm
15:50 83.8 °F /  28.8 °C 64.9 °F /  18.3 °C 29.74in /  1007hPa NW 2.0mph /  3.2km/h 8.0mph /  12.9km/h 53% 0.01in /  0.3mm
16:00 83.7 °F /  28.7 °C 60.1 °F /  15.6 °C 29.75in /  1007.3hPa NW 2.0mph /  3.2km/h 8.0mph /  12.9km/h 45% 0.01in /  0.3mm
16:05 83.3 °F /  28.5 °C 58.5 °F /  14.7 °C 29.75in /  1007.3hPa NW 5.0mph /  8km/h 10.0mph /  16.1km/h 43% 0.01in /  0.3mm
16:10 83.1 °F /  28.4 °C 60.2 °F /  15.7 °C 29.75in /  1007.3hPa NW 1.0mph /  1.6km/h 12.0mph /  19.3km/h 46% 0.01in /  0.3mm
16:15 83.3 °F /  28.5 °C 63.3 °F /  17.4 °C 29.74in /  1007hPa Calm   12.0mph /  19.3km/h 51% 0.01in /  0.3mm
16:20 83.9 °F /  28.8 °C 62.1 °F /  16.7 °C 29.74in /  1007hPa NW 1.0mph /  1.6km/h 5.0mph /  8km/h 48% 0.01in /  0.3mm
16:25 84.2 °F /  29 °C 64.1 °F /  17.8 °C 29.74in /  1007hPa Calm   5.0mph /  8km/h 51% 0.01in /  0.3mm
16:30 84.3 °F /  29.1 °C 57.4 °F /  14.1 °C 29.74in /  1007hPa NW 2.0mph /  3.2km/h 7.0mph /  11.3km/h 40% 0.01in /  0.3mm
16:35 83.8 °F /  28.8 °C 59.6 °F /  15.3 °C 29.74in /  1007hPa NW 1.0mph /  1.6km/h 10.0mph /  16.1km/h 44% 0.01in /  0.3mm
16:40 83.7 °F /  28.7 °C 62.5 °F /  16.9 °C 29.74in /  1007hPa WNW 2.0mph /  3.2km/h 10.0mph /  16.1km/h 49% 0.01in /  0.3mm
16:45 83.5 °F /  28.6 °C 64.6 °F /  18.1 °C 29.74in /  1007hPa Calm   9.0mph /  14.5km/h 53% 0.01in /  0.3mm
16:50 83.4 °F /  28.6 °C 64.0 °F /  17.8 °C 29.74in /  1007hPa NW 1.0mph /  1.6km/h 9.0mph /  14.5km/h 52% 0.01in /  0.3mm
16:55 83.3 °F /  28.5 °C 59.8 °F /  15.4 °C 29.74in /  1007hPa WNW 1.0mph /  1.6km/h 8.0mph /  12.9km/h 45% 0.01in /  0.3mm
17:00 83.1 °F /  28.4 °C 61.4 °F /  16.3 °C 29.74in /  1007hPa Calm   8.0mph /  12.9km/h 48% 0.01in /  0.3mm
17:05 83.0 °F /  28.3 °C 62.5 °F /  16.9 °C 29.74in /  1007hPa Calm   7.0mph /  11.3km/h 50% 0.01in /  0.3mm
17:10 83.2 °F /  28.4 °C 60.3 °F /  15.7 °C 29.73in /  1006.7hPa NW 1.0mph /  1.6km/h 6.0mph /  9.7km/h 46% 0.01in /  0.3mm
17:15 83.6 °F /  28.7 °C 61.3 °F /  16.3 °C 29.73in /  1006.7hPa Calm   6.0mph /  9.7km/h 47% 0.01in /  0.3mm
17:20 83.8 °F /  28.8 °C 60.8 °F /  16 °C 29.73in /  1006.7hPa NW 2.0mph /  3.2km/h 7.0mph /  11.3km/h 46% 0.01in /  0.3mm
17:25 83.4 °F /  28.6 °C 61.7 °F /  16.5 °C 29.73in /  1006.7hPa Calm   7.0mph /  11.3km/h 48% 0.01in /  0.3mm
17:30 83.4 °F /  28.6 °C 57.9 °F /  14.4 °C 29.73in /  1006.7hPa Calm   7.0mph /  11.3km/h 42% 0.01in /  0.3mm
17:35 83.4 °F /  28.6 °C 60.5 °F /  15.8 °C 29.73in /  1006.7hPa Calm   2.0mph /  3.2km/h 46% 0.01in /  0.3mm
17:40 83.6 °F /  28.7 °C 63.0 °F /  17.2 °C 29.73in /  1006.7hPa NNW 1.0mph /  1.6km/h 7.0mph /  11.3km/h 50% 0.01in /  0.3mm
17:45 83.5 °F /  28.6 °C 60.0 °F /  15.6 °C 29.73in /  1006.7hPa Calm   7.0mph /  11.3km/h 45% 0.01in /  0.3mm
17:50 83.2 °F /  28.4 °C 59.1 °F /  15.1 °C 29.73in /  1006.7hPa Calm   4.0mph /  6.4km/h 44% 0.01in /  0.3mm
17:55 83.2 °F /  28.4 °C 62.1 °F /  16.7 °C 29.73in /  1006.7hPa Calm   1.0mph /  1.6km/h 49% 0.01in /  0.3mm
18:00 83.2 °F /  28.4 °C 60.9 °F /  16.1 °C 29.73in /  1006.7hPa Calm   2.0mph /  3.2km/h 47% 0.01in /  0.3mm
18:05 83.0 °F /  28.3 °C 58.9 °F /  14.9 °C 29.74in /  1007hPa NW 1.0mph /  1.6km/h 6.0mph /  9.7km/h 44% 0.01in /  0.3mm
18:10 82.9 °F /  28.3 °C 60.6 °F /  15.9 °C 29.74in /  1007hPa Calm   6.0mph /  9.7km/h 47% 0.01in /  0.3mm
18:15 82.7 °F /  28.2 °C 58.6 °F /  14.8 °C 29.74in /  1007hPa Calm   4.0mph /  6.4km/h 44% 0.01in /  0.3mm
18:20 82.5 °F /  28.1 °C 60.3 °F /  15.7 °C 29.74in /  1007hPa Calm   4.0mph /  6.4km/h 47% 0.01in /  0.3mm
18:25 82.0 °F /  27.8 °C 60.4 °F /  15.8 °C 29.74in /  1007hPa Calm   5.0mph /  8km/h 48% 0.01in /  0.3mm
18:30 81.6 °F /  27.6 °C 59.4 °F /  15.2 °C 29.74in /  1007hPa NW 1.0mph /  1.6km/h 5.0mph /  8km/h 47% 0.01in /  0.3mm
18:35 81.4 °F /  27.4 °C 59.9 °F /  15.5 °C 29.74in /  1007hPa Calm   5.0mph /  8km/h 48% 0.01in /  0.3mm
18:40 81.5 °F /  27.5 °C 62.7 °F /  17.1 °C 29.74in /  1007hPa Calm   2.0mph /  3.2km/h 53% 0.01in /  0.3mm
18:45 81.5 °F /  27.5 °C 60.5 °F /  15.8 °C 29.74in /  1007hPa Calm   2.0mph /  3.2km/h 49% 0.01in /  0.3mm
18:50 81.6 °F /  27.6 °C 64.9 °F /  18.3 °C 29.74in /  1007hPa Calm     57% 0.01in /  0.3mm
18:55 81.2 °F /  27.3 °C 63.5 °F /  17.5 °C 29.74in /  1007hPa Calm     55% 0.01in /  0.3mm
19:00 80.2 °F /  26.8 °C 63.1 °F /  17.3 °C 29.74in /  1007hPa Calm     56% 0.01in /  0.3mm
19:05 79.4 °F /  26.3 °C 63.8 °F /  17.7 °C 29.74in /  1007hPa Calm     59% 0.01in /  0.3mm
19:10 78.5 °F /  25.8 °C 64.4 °F /  18 °C 29.74in /  1007hPa Calm   2.0mph /  3.2km/h 62% 0.01in /  0.3mm
19:15 77.4 °F /  25.2 °C 62.9 °F /  17.2 °C 29.74in /  1007hPa Calm   2.0mph /  3.2km/h 61% 0.01in /  0.3mm
19:20 76.1 °F /  24.5 °C 63.9 °F /  17.7 °C 29.74in /  1007hPa Calm   1.0mph /  1.6km/h 66% 0.01in /  0.3mm
19:25 75.2 °F /  24 °C 63.5 °F /  17.5 °C 29.74in /  1007hPa Calm   1.0mph /  1.6km/h 67% 0.01in /  0.3mm
19:30 74.8 °F /  23.8 °C 64.0 °F /  17.8 °C 29.74in /  1007hPa Calm     69% 0.01in /  0.3mm
19:35 74.6 °F /  23.7 °C 64.2 °F /  17.9 °C 29.74in /  1007hPa Calm     70% 0.01in /  0.3mm
19:45 73.9 °F /  23.3 °C 63.1 °F /  17.3 °C 29.74in /  1007hPa Calm     69% 0.01in /  0.3mm
19:50 73.2 °F /  22.9 °C 61.2 °F /  16.2 °C 29.74in /  1007hPa Calm     66% 0.01in /  0.3mm
19:55 72.3 °F /  22.4 °C 61.2 °F /  16.2 °C 29.74in /  1007hPa Calm     68% 0.01in /  0.3mm
20:00 71.3 °F /  21.8 °C 61.8 °F /  16.6 °C 29.74in /  1007hPa Calm     72% 0.01in /  0.3mm
20:05 70.2 °F /  21.2 °C 60.8 °F /  16 °C 29.74in /  1007hPa Calm     72% 0.01in /  0.3mm
20:10 69.2 °F /  20.7 °C 60.6 °F /  15.9 °C 29.74in /  1007hPa Calm     74% 0.01in /  0.3mm
20:15 68.2 °F /  20.1 °C 58.8 °F /  14.9 °C 29.75in /  1007.3hPa Calm     72% 0.01in /  0.3mm
20:25 66.8 °F /  19.3 °C 59.4 °F /  15.2 °C 29.74in /  1007hPa Calm     77% 0.01in /  0.3mm
20:30 66.2 °F /  19 °C 59.1 °F /  15.1 °C 29.75in /  1007.3hPa Calm     78% 0.01in /  0.3mm
20:35 65.7 °F /  18.7 °C 58.7 °F /  14.8 °C 29.75in /  1007.3hPa Calm     78% 0.01in /  0.3mm
20:40 65.2 °F /  18.4 °C 58.5 °F /  14.7 °C 29.75in /  1007.3hPa Calm     79% 0.01in /  0.3mm
20:45 64.8 °F /  18.2 °C 57.8 °F /  14.3 °C 29.75in /  1007.3hPa Calm     78% 0.01in /  0.3mm
20:50 64.6 °F /  18.1 °C 57.9 °F /  14.4 °C 29.75in /  1007.3hPa Calm     79% 0.01in /  0.3mm
20:55 64.4 °F /  18 °C 57.4 °F /  14.1 °C 29.75in /  1007.3hPa Calm     78% 0.01in /  0.3mm
21:00 64.2 °F /  17.9 °C 57.6 °F /  14.2 °C 29.75in /  1007.3hPa Calm     79% 0.01in /  0.3mm
21:05 64.0 °F /  17.8 °C 57.4 °F /  14.1 °C 29.75in /  1007.3hPa Calm     79% 0.01in /  0.3mm
21:10 64.0 °F /  17.8 °C 57.7 °F /  14.3 °C 29.75in /  1007.3hPa Calm     80% 0.01in /  0.3mm
21:15 64.0 °F /  17.8 °C 58.1 °F /  14.5 °C 29.76in /  1007.7hPa Calm     81% 0.01in /  0.3mm
21:20 63.8 °F /  17.7 °C 58.2 °F /  14.6 °C 29.76in /  1007.7hPa Calm     82% 0.01in /  0.3mm
21:25 63.6 °F /  17.6 °C 57.7 °F /  14.3 °C 29.76in /  1007.7hPa Calm   2.0mph /  3.2km/h 81% 0.01in /  0.3mm
21:30 63.5 °F /  17.5 °C 57.9 °F /  14.4 °C 29.76in /  1007.7hPa Calm   2.0mph /  3.2km/h 82% 0.01in /  0.3mm
21:35 63.6 °F /  17.6 °C 57.7 °F /  14.3 °C 29.76in /  1007.7hPa Calm   2.0mph /  3.2km/h 81% 0.01in /  0.3mm
21:40 63.9 °F /  17.7 °C 58.3 °F /  14.6 °C 29.76in /  1007.7hPa Calm   1.0mph /  1.6km/h 82% 0.01in /  0.3mm
21:45 63.9 °F /  17.7 °C 58.3 °F /  14.6 °C 29.76in /  1007.7hPa Calm   1.0mph /  1.6km/h 82% 0.01in /  0.3mm
21:50 63.9 °F /  17.7 °C 58.3 °F /  14.6 °C 29.76in /  1007.7hPa Calm   1.0mph /  1.6km/h 82% 0.01in /  0.3mm
21:55 63.7 °F /  17.6 °C 58.1 °F /  14.5 °C 29.76in /  1007.7hPa Calm   1.0mph /  1.6km/h 82% 0.01in /  0.3mm
22:00 63.6 °F /  17.6 °C 58.3 °F /  14.6 °C 29.76in /  1007.7hPa Calm     83% 0.01in /  0.3mm
22:05 63.6 °F /  17.6 °C 58.3 °F /  14.6 °C 29.76in /  1007.7hPa Calm     83% 0.01in /  0.3mm
22:10 63.9 °F /  17.7 °C 59.0 °F /  15 °C 29.76in /  1007.7hPa NW 1.0mph /  1.6km/h 2.0mph /  3.2km/h 84% 0.01in /  0.3mm
22:15 64.1 °F /  17.8 °C 58.5 °F /  14.7 °C 29.76in /  1007.7hPa Calm   2.0mph /  3.2km/h 82% 0.01in /  0.3mm
22:20 64.5 °F /  18.1 °C 58.9 °F /  14.9 °C 29.76in /  1007.7hPa Calm   1.0mph /  1.6km/h 82% 0.01in /  0.3mm
22:25 64.9 °F /  18.3 °C 58.6 °F /  14.8 °C 29.76in /  1007.7hPa Calm   4.0mph /  6.4km/h 80% 0.01in /  0.3mm
22:30 65.6 °F /  18.7 °C 58.2 °F /  14.6 °C 29.77in /  1008hPa Calm   4.0mph /  6.4km/h 77% 0.01in /  0.3mm
22:40 66.6 °F /  19.2 °C 58.4 °F /  14.7 °C 29.77in /  1008hPa Calm   1.0mph /  1.6km/h 75% 0.01in /  0.3mm
22:45 66.9 °F /  19.4 °C 59.5 °F /  15.3 °C 29.77in /  1008hPa Calm   1.0mph /  1.6km/h 77% 0.01in /  0.3mm
22:50 67.0 °F /  19.4 °C 58.8 °F /  14.9 °C 29.77in /  1008hPa Calm   1.0mph /  1.6km/h 75% 0.01in /  0.3mm
22:55 67.1 °F /  19.5 °C 59.3 °F /  15.2 °C 29.77in /  1008hPa Calm   1.0mph /  1.6km/h 76% 0.01in /  0.3mm
23:00 67.1 °F /  19.5 °C 58.9 °F /  14.9 °C 29.77in /  1008hPa Calm   2.0mph /  3.2km/h 75% 0.01in /  0.3mm
23:05 67.0 °F /  19.4 °C 58.8 °F /  14.9 °C 29.77in /  1008hPa Calm   2.0mph /  3.2km/h 75% 0.01in /  0.3mm
23:10 67.0 °F /  19.4 °C 59.2 °F /  15.1 °C 29.77in /  1008hPa Calm   3.0mph /  4.8km/h 76% 0.01in /  0.3mm
23:15 67.0 °F /  19.4 °C 58.8 °F /  14.9 °C 29.77in /  1008hPa Calm   4.0mph /  6.4km/h 75% 0.01in /  0.3mm
23:20 67.2 °F /  19.6 °C 59.0 °F /  15 °C 29.77in /  1008hPa Calm   4.0mph /  6.4km/h 75% 0.01in /  0.3mm
23:25 67.3 °F /  19.6 °C 58.4 °F /  14.7 °C 29.78in /  1008.4hPa Calm   3.0mph /  4.8km/h 73% 0.01in /  0.3mm
23:30 67.2 °F /  19.6 °C 58.6 °F /  14.8 °C 29.78in /  1008.4hPa Calm   3.0mph /  4.8km/h 74% 0.01in /  0.3mm
23:35 66.8 °F /  19.3 °C 58.6 °F /  14.8 °C 29.78in /  1008.4hPa Calm   1.0mph /  1.6km/h 75% 0.01in /  0.3mm
23:40 66.3 °F /  19.1 °C 58.5 °F /  14.7 °C 29.78in /  1008.4hPa Calm   1.0mph /  1.6km/h 76% 0.01in /  0.3mm
23:45 65.7 °F /  18.7 °C 58.3 °F /  14.6 °C 29.78in /  1008.4hPa Calm   1.0mph /  1.6km/h 77% 0.01in /  0.3mm
23:55 64.8 °F /  18.2 °C 57.8 °F /  14.3 °C 29.78in /  1008.4hPa Calm   2.0mph /  3.2km/h 78% 0.01in /  0.3mm
Westford Weather
Compliments of Weather Underground

 
 
Current Radar Loop:

Copyright © WestfordWeather.net 2007-2014. All rights reserved.